sensor_id;sensor_type;location;lat;lon;timestamp;P1;durP1;ratioP1;P2;durP2;ratioP2
60665;SDS011;59128;44.642;21.188;2023-12-04T00:01:55;100.22;;;68.85;;
60665;SDS011;59128;44.642;21.188;2023-12-04T00:04:21;102.63;;;73.10;;
60665;SDS011;59128;44.642;21.188;2023-12-04T00:06:47;112.95;;;77.38;;
60665;SDS011;59128;44.642;21.188;2023-12-04T00:09:13;107.22;;;76.88;;
60665;SDS011;59128;44.642;21.188;2023-12-04T00:11:39;113.13;;;75.93;;
60665;SDS011;59128;44.642;21.188;2023-12-04T00:14:05;269.70;;;140.25;;
60665;SDS011;59128;44.642;21.188;2023-12-04T00:16:34;243.07;;;134.32;;
60665;SDS011;59128;44.642;21.188;2023-12-04T00:19:00;231.35;;;122.18;;
60665;SDS011;59128;44.642;21.188;2023-12-04T00:21:26;228.68;;;120.15;;
60665;SDS011;59128;44.642;21.188;2023-12-04T00:23:52;244.75;;;123.18;;
60665;SDS011;59128;44.642;21.188;2023-12-04T00:26:18;256.85;;;140.05;;
60665;SDS011;59128;44.642;21.188;2023-12-04T00:28:44;164.57;;;100.35;;
60665;SDS011;59128;44.642;21.188;2023-12-04T00:31:10;146.70;;;93.07;;
60665;SDS011;59128;44.642;21.188;2023-12-04T00:33:36;145.23;;;91.95;;
60665;SDS011;59128;44.642;21.188;2023-12-04T00:36:03;145.80;;;92.85;;
60665;SDS011;59128;44.642;21.188;2023-12-04T00:38:29;147.17;;;93.73;;
60665;SDS011;59128;44.642;21.188;2023-12-04T00:40:55;183.80;;;106.20;;
60665;SDS011;59128;44.642;21.188;2023-12-04T00:43:21;142.50;;;90.30;;
60665;SDS011;59128;44.642;21.188;2023-12-04T00:45:50;142.55;;;89.00;;
60665;SDS011;59128;44.642;21.188;2023-12-04T00:48:16;177.93;;;111.83;;
60665;SDS011;59128;44.642;21.188;2023-12-04T00:50:42;174.70;;;111.28;;
60665;SDS011;59128;44.642;21.188;2023-12-04T00:53:08;133.27;;;89.95;;
60665;SDS011;59128;44.642;21.188;2023-12-04T00:55:34;132.73;;;81.18;;
60665;SDS011;59128;44.642;21.188;2023-12-04T00:58:00;133.68;;;83.60;;
60665;SDS011;59128;44.642;21.188;2023-12-04T01:00:26;123.28;;;82.00;;
60665;SDS011;59128;44.642;21.188;2023-12-04T01:02:52;141.48;;;92.72;;
60665;SDS011;59128;44.642;21.188;2023-12-04T01:05:18;160.70;;;98.00;;
60665;SDS011;59128;44.642;21.188;2023-12-04T01:07:44;148.50;;;84.97;;
60665;SDS011;59128;44.642;21.188;2023-12-04T01:10:10;170.10;;;97.65;;
60665;SDS011;59128;44.642;21.188;2023-12-04T01:12:36;151.20;;;88.57;;
60665;SDS011;59128;44.642;21.188;2023-12-04T01:15:02;283.27;;;164.00;;
60665;SDS011;59128;44.642;21.188;2023-12-04T01:17:28;263.55;;;160.70;;
60665;SDS011;59128;44.642;21.188;2023-12-04T01:19:55;207.50;;;132.55;;
60665;SDS011;59128;44.642;21.188;2023-12-04T01:22:22;136.60;;;88.15;;
60665;SDS011;59128;44.642;21.188;2023-12-04T01:24:48;146.10;;;92.03;;
60665;SDS011;59128;44.642;21.188;2023-12-04T01:27:14;350.02;;;221.10;;
60665;SDS011;59128;44.642;21.188;2023-12-04T01:29:40;258.90;;;172.43;;
60665;SDS011;59128;44.642;21.188;2023-12-04T01:32:06;135.35;;;94.55;;
60665;SDS011;59128;44.642;21.188;2023-12-04T01:34:32;163.82;;;114.28;;
60665;SDS011;59128;44.642;21.188;2023-12-04T01:36:58;120.28;;;87.03;;
60665;SDS011;59128;44.642;21.188;2023-12-04T01:39:24;112.78;;;78.32;;
60665;SDS011;59128;44.642;21.188;2023-12-04T01:41:51;102.05;;;72.50;;
60665;SDS011;59128;44.642;21.188;2023-12-04T01:44:17;110.57;;;79.47;;
60665;SDS011;59128;44.642;21.188;2023-12-04T01:46:43;131.98;;;95.28;;
60665;SDS011;59128;44.642;21.188;2023-12-04T01:49:09;127.53;;;91.25;;
60665;SDS011;59128;44.642;21.188;2023-12-04T01:51:35;108.07;;;79.43;;
60665;SDS011;59128;44.642;21.188;2023-12-04T01:54:02;102.30;;;74.07;;
60665;SDS011;59128;44.642;21.188;2023-12-04T01:56:30;96.80;;;68.60;;
60665;SDS011;59128;44.642;21.188;2023-12-04T01:58:56;94.50;;;65.25;;
60665;SDS011;59128;44.642;21.188;2023-12-04T02:01:22;93.70;;;66.63;;
60665;SDS011;59128;44.642;21.188;2023-12-04T02:03:49;108.60;;;74.85;;
60665;SDS011;59128;44.642;21.188;2023-12-04T02:06:16;231.23;;;130.93;;
60665;SDS011;59128;44.642;21.188;2023-12-04T02:08:42;167.90;;;112.70;;
60665;SDS011;59128;44.642;21.188;2023-12-04T02:11:08;118.97;;;82.55;;
60665;SDS011;59128;44.642;21.188;2023-12-04T02:13:35;126.28;;;82.50;;
60665;SDS011;59128;44.642;21.188;2023-12-04T02:16:02;128.33;;;85.97;;
60665;SDS011;59128;44.642;21.188;2023-12-04T02:18:32;121.18;;;75.93;;
60665;SDS011;59128;44.642;21.188;2023-12-04T02:21:00;116.68;;;75.57;;
60665;SDS011;59128;44.642;21.188;2023-12-04T02:23:26;105.95;;;71.80;;
60665;SDS011;59128;44.642;21.188;2023-12-04T02:25:58;106.47;;;70.18;;
60665;SDS011;59128;44.642;21.188;2023-12-04T02:28:25;88.80;;;61.60;;
60665;SDS011;59128;44.642;21.188;2023-12-04T02:30:52;92.18;;;61.97;;
60665;SDS011;59128;44.642;21.188;2023-12-04T02:33:19;91.47;;;63.72;;
60665;SDS011;59128;44.642;21.188;2023-12-04T02:35:46;111.30;;;72.03;;
60665;SDS011;59128;44.642;21.188;2023-12-04T02:38:13;100.38;;;65.50;;
60665;SDS011;59128;44.642;21.188;2023-12-04T02:40:39;118.80;;;83.13;;
60665;SDS011;59128;44.642;21.188;2023-12-04T02:43:06;106.60;;;73.93;;
60665;SDS011;59128;44.642;21.188;2023-12-04T02:45:32;96.90;;;66.20;;
60665;SDS011;59128;44.642;21.188;2023-12-04T02:47:58;114.22;;;72.82;;
60665;SDS011;59128;44.642;21.188;2023-12-04T02:50:24;479.88;;;179.82;;
60665;SDS011;59128;44.642;21.188;2023-12-04T02:52:50;209.85;;;110.35;;
60665;SDS011;59128;44.642;21.188;2023-12-04T02:55:16;203.13;;;115.63;;
60665;SDS011;59128;44.642;21.188;2023-12-04T02:57:42;152.27;;;87.47;;
60665;SDS011;59128;44.642;21.188;2023-12-04T03:00:08;92.82;;;62.13;;
60665;SDS011;59128;44.642;21.188;2023-12-04T03:02:34;93.03;;;64.70;;
60665;SDS011;59128;44.642;21.188;2023-12-04T03:07:36;143.13;;;81.17;;
60665;SDS011;59128;44.642;21.188;2023-12-04T03:10:02;120.97;;;77.05;;
60665;SDS011;59128;44.642;21.188;2023-12-04T03:12:28;114.60;;;76.40;;
60665;SDS011;59128;44.642;21.188;2023-12-04T03:14:54;75.95;;;52.63;;
60665;SDS011;59128;44.642;21.188;2023-12-04T03:17:20;73.03;;;48.65;;
60665;SDS011;59128;44.642;21.188;2023-12-04T03:19:47;90.00;;;57.75;;
60665;SDS011;59128;44.642;21.188;2023-12-04T03:22:13;103.93;;;66.10;;
60665;SDS011;59128;44.642;21.188;2023-12-04T03:24:39;91.20;;;59.97;;
60665;SDS011;59128;44.642;21.188;2023-12-04T03:27:05;89.43;;;58.22;;
60665;SDS011;59128;44.642;21.188;2023-12-04T03:29:31;96.37;;;62.00;;
60665;SDS011;59128;44.642;21.188;2023-12-04T03:31:57;90.35;;;59.22;;
60665;SDS011;59128;44.642;21.188;2023-12-04T03:34:23;87.22;;;56.58;;
60665;SDS011;59128;44.642;21.188;2023-12-04T03:36:49;88.03;;;56.85;;
60665;SDS011;59128;44.642;21.188;2023-12-04T03:39:15;71.63;;;48.95;;
60665;SDS011;59128;44.642;21.188;2023-12-04T03:41:41;60.13;;;43.42;;
60665;SDS011;59128;44.642;21.188;2023-12-04T03:44:07;58.35;;;41.40;;
60665;SDS011;59128;44.642;21.188;2023-12-04T03:46:33;68.25;;;47.45;;
60665;SDS011;59128;44.642;21.188;2023-12-04T03:48:59;91.68;;;60.58;;
60665;SDS011;59128;44.642;21.188;2023-12-04T03:51:25;96.53;;;64.22;;
60665;SDS011;59128;44.642;21.188;2023-12-04T03:53:51;90.18;;;59.33;;
60665;SDS011;59128;44.642;21.188;2023-12-04T03:56:17;80.80;;;56.00;;
60665;SDS011;59128;44.642;21.188;2023-12-04T03:58:43;107.88;;;72.07;;
60665;SDS011;59128;44.642;21.188;2023-12-04T04:01:09;67.70;;;45.95;;
60665;SDS011;59128;44.642;21.188;2023-12-04T04:03:35;88.88;;;56.75;;
60665;SDS011;59128;44.642;21.188;2023-12-04T04:06:01;84.90;;;54.70;;
60665;SDS011;59128;44.642;21.188;2023-12-04T04:08:27;89.07;;;58.40;;
60665;SDS011;59128;44.642;21.188;2023-12-04T04:10:54;77.97;;;54.30;;
60665;SDS011;59128;44.642;21.188;2023-12-04T04:13:20;70.63;;;47.25;;
60665;SDS011;59128;44.642;21.188;2023-12-04T04:15:46;77.65;;;53.83;;
60665;SDS011;59128;44.642;21.188;2023-12-04T04:18:12;83.85;;;60.67;;
60665;SDS011;59128;44.642;21.188;2023-12-04T04:20:38;68.40;;;47.13;;
60665;SDS011;59128;44.642;21.188;2023-12-04T04:23:04;67.97;;;48.23;;
60665;SDS011;59128;44.642;21.188;2023-12-04T04:25:30;89.30;;;64.35;;
60665;SDS011;59128;44.642;21.188;2023-12-04T04:27:56;67.70;;;46.85;;
60665;SDS011;59128;44.642;21.188;2023-12-04T04:30:22;61.78;;;46.85;;
60665;SDS011;59128;44.642;21.188;2023-12-04T04:32:48;147.13;;;106.93;;
60665;SDS011;59128;44.642;21.188;2023-12-04T04:35:14;104.20;;;74.97;;
60665;SDS011;59128;44.642;21.188;2023-12-04T04:37:40;115.60;;;83.95;;
60665;SDS011;59128;44.642;21.188;2023-12-04T04:40:06;85.10;;;59.38;;
60665;SDS011;59128;44.642;21.188;2023-12-04T04:42:32;78.75;;;55.97;;
60665;SDS011;59128;44.642;21.188;2023-12-04T04:44:58;82.45;;;59.00;;
60665;SDS011;59128;44.642;21.188;2023-12-04T04:47:24;69.20;;;48.72;;
60665;SDS011;59128;44.642;21.188;2023-12-04T04:49:50;64.38;;;45.88;;
60665;SDS011;59128;44.642;21.188;2023-12-04T04:52:16;64.03;;;46.30;;
60665;SDS011;59128;44.642;21.188;2023-12-04T04:54:42;79.90;;;57.08;;
60665;SDS011;59128;44.642;21.188;2023-12-04T04:57:08;76.70;;;54.17;;
60665;SDS011;59128;44.642;21.188;2023-12-04T04:59:34;67.17;;;46.20;;
60665;SDS011;59128;44.642;21.188;2023-12-04T05:02:00;56.03;;;38.28;;
60665;SDS011;59128;44.642;21.188;2023-12-04T05:04:26;66.97;;;41.88;;
60665;SDS011;59128;44.642;21.188;2023-12-04T05:06:52;63.92;;;41.78;;
60665;SDS011;59128;44.642;21.188;2023-12-04T05:09:19;53.70;;;35.90;;
60665;SDS011;59128;44.642;21.188;2023-12-04T05:11:45;46.80;;;33.80;;
60665;SDS011;59128;44.642;21.188;2023-12-04T05:14:11;48.42;;;33.38;;
60665;SDS011;59128;44.642;21.188;2023-12-04T05:16:37;51.97;;;34.38;;
60665;SDS011;59128;44.642;21.188;2023-12-04T05:19:03;68.68;;;42.78;;
60665;SDS011;59128;44.642;21.188;2023-12-04T05:21:29;84.65;;;55.42;;
60665;SDS011;59128;44.642;21.188;2023-12-04T05:23:55;101.25;;;61.65;;
60665;SDS011;59128;44.642;21.188;2023-12-04T05:26:21;98.20;;;63.10;;
60665;SDS011;59128;44.642;21.188;2023-12-04T05:28:47;108.13;;;67.70;;
60665;SDS011;59128;44.642;21.188;2023-12-04T05:31:13;110.22;;;66.53;;
60665;SDS011;59128;44.642;21.188;2023-12-04T05:33:39;147.75;;;83.53;;
60665;SDS011;59128;44.642;21.188;2023-12-04T05:36:05;324.60;;;145.98;;
60665;SDS011;59128;44.642;21.188;2023-12-04T05:38:31;143.55;;;76.28;;
60665;SDS011;59128;44.642;21.188;2023-12-04T05:40:58;345.58;;;155.55;;
60665;SDS011;59128;44.642;21.188;2023-12-04T05:43:24;216.30;;;110.50;;
60665;SDS011;59128;44.642;21.188;2023-12-04T05:45:50;151.15;;;87.00;;
60665;SDS011;59128;44.642;21.188;2023-12-04T05:48:16;100.87;;;74.93;;
60665;SDS011;59128;44.642;21.188;2023-12-04T05:50:42;126.18;;;93.72;;
60665;SDS011;59128;44.642;21.188;2023-12-04T05:53:08;117.40;;;84.00;;
60665;SDS011;59128;44.642;21.188;2023-12-04T05:55:34;102.78;;;78.13;;
60665;SDS011;59128;44.642;21.188;2023-12-04T05:58:00;95.70;;;67.68;;
60665;SDS011;59128;44.642;21.188;2023-12-04T06:00:27;126.03;;;89.53;;
60665;SDS011;59128;44.642;21.188;2023-12-04T06:02:53;157.73;;;93.15;;
60665;SDS011;59128;44.642;21.188;2023-12-04T06:05:19;177.20;;;95.80;;
60665;SDS011;59128;44.642;21.188;2023-12-04T06:07:45;151.30;;;86.95;;
60665;SDS011;59128;44.642;21.188;2023-12-04T06:10:11;154.45;;;93.70;;
60665;SDS011;59128;44.642;21.188;2023-12-04T06:12:37;158.20;;;104.47;;
60665;SDS011;59128;44.642;21.188;2023-12-04T06:15:03;124.38;;;86.25;;
60665;SDS011;59128;44.642;21.188;2023-12-04T06:17:29;127.30;;;85.00;;
60665;SDS011;59128;44.642;21.188;2023-12-04T06:19:55;121.38;;;77.75;;
60665;SDS011;59128;44.642;21.188;2023-12-04T06:22:22;98.87;;;64.73;;
60665;SDS011;59128;44.642;21.188;2023-12-04T06:24:48;319.13;;;128.25;;
60665;SDS011;59128;44.642;21.188;2023-12-04T06:27:15;398.08;;;157.88;;
60665;SDS011;59128;44.642;21.188;2023-12-04T06:29:42;450.67;;;178.23;;
60665;SDS011;59128;44.642;21.188;2023-12-04T06:32:08;269.73;;;106.93;;
60665;SDS011;59128;44.642;21.188;2023-12-04T06:34:34;190.30;;;85.40;;
60665;SDS011;59128;44.642;21.188;2023-12-04T06:37:01;243.70;;;102.07;;
60665;SDS011;59128;44.642;21.188;2023-12-04T06:39:29;166.52;;;78.13;;
60665;SDS011;59128;44.642;21.188;2023-12-04T06:41:58;164.35;;;73.75;;
60665;SDS011;59128;44.642;21.188;2023-12-04T06:44:24;107.63;;;52.13;;
60665;SDS011;59128;44.642;21.188;2023-12-04T06:46:50;76.15;;;45.78;;
60665;SDS011;59128;44.642;21.188;2023-12-04T06:49:17;72.83;;;49.43;;
60665;SDS011;59128;44.642;21.188;2023-12-04T06:51:44;89.93;;;62.88;;
60665;SDS011;59128;44.642;21.188;2023-12-04T06:54:13;91.95;;;63.60;;
60665;SDS011;59128;44.642;21.188;2023-12-04T06:56:39;93.60;;;58.42;;
60665;SDS011;59128;44.642;21.188;2023-12-04T06:59:05;87.45;;;53.92;;
60665;SDS011;59128;44.642;21.188;2023-12-04T07:01:31;79.47;;;51.05;;
60665;SDS011;59128;44.642;21.188;2023-12-04T07:03:57;165.73;;;92.88;;
60665;SDS011;59128;44.642;21.188;2023-12-04T07:06:23;90.47;;;58.40;;
60665;SDS011;59128;44.642;21.188;2023-12-04T07:08:50;136.70;;;83.38;;
60665;SDS011;59128;44.642;21.188;2023-12-04T07:11:16;124.55;;;77.88;;
60665;SDS011;59128;44.642;21.188;2023-12-04T07:13:42;185.13;;;101.47;;
60665;SDS011;59128;44.642;21.188;2023-12-04T07:16:08;225.30;;;125.35;;
60665;SDS011;59128;44.642;21.188;2023-12-04T07:18:34;157.60;;;94.80;;
60665;SDS011;59128;44.642;21.188;2023-12-04T07:21:00;49.83;;;37.13;;
60665;SDS011;59128;44.642;21.188;2023-12-04T07:23:27;45.80;;;34.03;;
60665;SDS011;59128;44.642;21.188;2023-12-04T07:25:53;60.63;;;44.95;;
60665;SDS011;59128;44.642;21.188;2023-12-04T07:28:19;49.15;;;38.00;;
60665;SDS011;59128;44.642;21.188;2023-12-04T07:30:45;59.17;;;44.03;;
60665;SDS011;59128;44.642;21.188;2023-12-04T07:33:12;45.53;;;35.03;;
60665;SDS011;59128;44.642;21.188;2023-12-04T07:35:38;41.00;;;30.17;;
60665;SDS011;59128;44.642;21.188;2023-12-04T07:38:04;42.33;;;31.15;;
60665;SDS011;59128;44.642;21.188;2023-12-04T07:40:30;40.60;;;31.03;;
60665;SDS011;59128;44.642;21.188;2023-12-04T07:42:57;43.13;;;30.83;;
60665;SDS011;59128;44.642;21.188;2023-12-04T07:45:24;42.95;;;31.73;;
60665;SDS011;59128;44.642;21.188;2023-12-04T07:47:50;40.83;;;30.13;;
60665;SDS011;59128;44.642;21.188;2023-12-04T07:50:16;41.77;;;32.13;;
60665;SDS011;59128;44.642;21.188;2023-12-04T07:52:42;38.47;;;29.13;;
60665;SDS011;59128;44.642;21.188;2023-12-04T07:55:08;66.68;;;46.92;;
60665;SDS011;59128;44.642;21.188;2023-12-04T07:57:34;58.15;;;42.33;;
60665;SDS011;59128;44.642;21.188;2023-12-04T08:00:00;37.47;;;29.52;;
60665;SDS011;59128;44.642;21.188;2023-12-04T08:02:26;33.53;;;28.33;;
60665;SDS011;59128;44.642;21.188;2023-12-04T08:04:53;44.70;;;36.40;;
60665;SDS011;59128;44.642;21.188;2023-12-04T08:07:19;38.92;;;31.20;;
60665;SDS011;59128;44.642;21.188;2023-12-04T08:09:45;83.00;;;62.15;;
60665;SDS011;59128;44.642;21.188;2023-12-04T08:12:11;83.07;;;63.77;;
60665;SDS011;59128;44.642;21.188;2023-12-04T08:14:37;66.85;;;53.65;;
60665;SDS011;59128;44.642;21.188;2023-12-04T08:17:03;23.45;;;20.95;;
60665;SDS011;59128;44.642;21.188;2023-12-04T08:19:30;38.60;;;33.33;;
60665;SDS011;59128;44.642;21.188;2023-12-04T08:21:56;38.97;;;33.83;;
60665;SDS011;59128;44.642;21.188;2023-12-04T08:24:23;45.43;;;38.43;;
60665;SDS011;59128;44.642;21.188;2023-12-04T08:26:49;33.35;;;28.52;;
60665;SDS011;59128;44.642;21.188;2023-12-04T08:29:15;49.38;;;39.85;;
60665;SDS011;59128;44.642;21.188;2023-12-04T08:31:42;46.65;;;38.63;;
60665;SDS011;59128;44.642;21.188;2023-12-04T08:34:08;38.03;;;32.30;;
60665;SDS011;59128;44.642;21.188;2023-12-04T08:36:35;36.60;;;29.60;;
60665;SDS011;59128;44.642;21.188;2023-12-04T08:39:01;35.33;;;30.23;;
60665;SDS011;59128;44.642;21.188;2023-12-04T08:41:27;36.65;;;31.33;;
60665;SDS011;59128;44.642;21.188;2023-12-04T08:43:53;35.50;;;30.40;;
60665;SDS011;59128;44.642;21.188;2023-12-04T08:46:20;28.13;;;23.97;;
60665;SDS011;59128;44.642;21.188;2023-12-04T08:48:46;41.45;;;32.72;;
60665;SDS011;59128;44.642;21.188;2023-12-04T08:51:16;27.37;;;23.10;;
60665;SDS011;59128;44.642;21.188;2023-12-04T08:53:42;34.88;;;28.27;;
60665;SDS011;59128;44.642;21.188;2023-12-04T08:56:09;36.60;;;29.00;;
60665;SDS011;59128;44.642;21.188;2023-12-04T08:58:35;37.27;;;28.90;;
60665;SDS011;59128;44.642;21.188;2023-12-04T09:01:04;29.63;;;24.25;;
60665;SDS011;59128;44.642;21.188;2023-12-04T09:03:30;52.38;;;40.63;;
60665;SDS011;59128;44.642;21.188;2023-12-04T09:05:57;59.25;;;39.90;;
60665;SDS011;59128;44.642;21.188;2023-12-04T09:08:23;64.53;;;42.15;;
60665;SDS011;59128;44.642;21.188;2023-12-04T09:10:52;25.38;;;20.20;;
60665;SDS011;59128;44.642;21.188;2023-12-04T09:13:18;31.13;;;23.10;;
60665;SDS011;59128;44.642;21.188;2023-12-04T09:15:44;42.83;;;30.08;;
60665;SDS011;59128;44.642;21.188;2023-12-04T09:18:10;88.88;;;56.83;;
60665;SDS011;59128;44.642;21.188;2023-12-04T09:20:37;60.60;;;40.47;;
60665;SDS011;59128;44.642;21.188;2023-12-04T09:23:03;41.70;;;29.65;;
60665;SDS011;59128;44.642;21.188;2023-12-04T09:25:29;26.10;;;20.90;;
60665;SDS011;59128;44.642;21.188;2023-12-04T09:27:55;25.63;;;20.55;;
60665;SDS011;59128;44.642;21.188;2023-12-04T09:30:21;20.98;;;18.65;;
60665;SDS011;59128;44.642;21.188;2023-12-04T09:32:47;22.63;;;19.52;;
60665;SDS011;59128;44.642;21.188;2023-12-04T09:35:13;48.00;;;33.25;;
60665;SDS011;59128;44.642;21.188;2023-12-04T09:37:40;35.80;;;29.20;;
60665;SDS011;59128;44.642;21.188;2023-12-04T09:40:06;23.60;;;20.23;;
60665;SDS011;59128;44.642;21.188;2023-12-04T09:42:33;25.73;;;20.83;;
60665;SDS011;59128;44.642;21.188;2023-12-04T09:44:59;54.85;;;37.50;;
60665;SDS011;59128;44.642;21.188;2023-12-04T09:47:26;26.77;;;21.67;;
60665;SDS011;59128;44.642;21.188;2023-12-04T09:49:53;24.90;;;19.80;;
60665;SDS011;59128;44.642;21.188;2023-12-04T09:52:19;24.30;;;20.40;;
60665;SDS011;59128;44.642;21.188;2023-12-04T09:54:45;37.70;;;26.90;;
60665;SDS011;59128;44.642;21.188;2023-12-04T09:57:11;23.00;;;19.92;;
60665;SDS011;59128;44.642;21.188;2023-12-04T09:59:40;21.45;;;19.15;;
60665;SDS011;59128;44.642;21.188;2023-12-04T10:02:08;23.63;;;20.75;;
60665;SDS011;59128;44.642;21.188;2023-12-04T10:04:34;23.67;;;19.13;;
60665;SDS011;59128;44.642;21.188;2023-12-04T10:07:01;24.38;;;19.85;;
60665;SDS011;59128;44.642;21.188;2023-12-04T10:09:28;26.00;;;20.20;;
60665;SDS011;59128;44.642;21.188;2023-12-04T10:11:55;19.40;;;17.35;;
60665;SDS011;59128;44.642;21.188;2023-12-04T10:14:22;24.63;;;19.30;;
60665;SDS011;59128;44.642;21.188;2023-12-04T10:16:48;23.23;;;19.33;;
60665;SDS011;59128;44.642;21.188;2023-12-04T10:21:58;31.95;;;22.58;;
60665;SDS011;59128;44.642;21.188;2023-12-04T10:26:53;20.40;;;17.35;;
60665;SDS011;59128;44.642;21.188;2023-12-04T10:29:19;25.23;;;20.05;;
60665;SDS011;59128;44.642;21.188;2023-12-04T10:31:45;24.85;;;19.85;;
60665;SDS011;59128;44.642;21.188;2023-12-04T10:34:15;26.17;;;21.77;;
60665;SDS011;59128;44.642;21.188;2023-12-04T10:36:41;22.15;;;17.55;;
60665;SDS011;59128;44.642;21.188;2023-12-04T10:39:07;18.80;;;16.40;;
60665;SDS011;59128;44.642;21.188;2023-12-04T10:41:33;19.08;;;16.00;;
60665;SDS011;59128;44.642;21.188;2023-12-04T10:43:59;18.57;;;15.80;;
60665;SDS011;59128;44.642;21.188;2023-12-04T10:46:26;19.92;;;16.50;;
60665;SDS011;59128;44.642;21.188;2023-12-04T10:48:52;20.67;;;15.95;;
60665;SDS011;59128;44.642;21.188;2023-12-04T10:51:18;29.80;;;22.42;;
60665;SDS011;59128;44.642;21.188;2023-12-04T10:53:46;76.78;;;40.17;;
60665;SDS011;59128;44.642;21.188;2023-12-04T10:56:20;23.73;;;19.90;;
60665;SDS011;59128;44.642;21.188;2023-12-04T10:58:51;28.43;;;21.40;;
60665;SDS011;59128;44.642;21.188;2023-12-04T11:01:19;27.95;;;20.67;;
60665;SDS011;59128;44.642;21.188;2023-12-04T11:03:45;30.50;;;23.63;;
60665;SDS011;59128;44.642;21.188;2023-12-04T11:06:14;36.58;;;26.85;;
60665;SDS011;59128;44.642;21.188;2023-12-04T11:08:42;26.77;;;20.85;;
60665;SDS011;59128;44.642;21.188;2023-12-04T11:11:12;26.40;;;19.60;;
60665;SDS011;59128;44.642;21.188;2023-12-04T11:13:42;23.80;;;18.08;;
60665;SDS011;59128;44.642;21.188;2023-12-04T11:16:51;23.90;;;18.90;;
60665;SDS011;59128;44.642;21.188;2023-12-04T11:21:37;30.83;;;23.35;;
60665;SDS011;59128;44.642;21.188;2023-12-04T11:24:05;25.55;;;21.40;;
60665;SDS011;59128;44.642;21.188;2023-12-04T11:26:31;43.47;;;25.38;;
60665;SDS011;59128;44.642;21.188;2023-12-04T11:28:58;26.48;;;19.40;;
60665;SDS011;59128;44.642;21.188;2023-12-04T11:31:24;37.63;;;24.00;;
60665;SDS011;59128;44.642;21.188;2023-12-04T11:33:51;31.25;;;22.70;;
60665;SDS011;59128;44.642;21.188;2023-12-04T11:36:17;45.17;;;33.15;;
60665;SDS011;59128;44.642;21.188;2023-12-04T11:38:46;23.35;;;19.67;;
60665;SDS011;59128;44.642;21.188;2023-12-04T11:41:14;104.45;;;66.30;;
60665;SDS011;59128;44.642;21.188;2023-12-04T11:43:41;81.93;;;44.95;;
60665;SDS011;59128;44.642;21.188;2023-12-04T11:46:08;94.90;;;64.75;;
60665;SDS011;59128;44.642;21.188;2023-12-04T11:48:38;24.02;;;19.73;;
60665;SDS011;59128;44.642;21.188;2023-12-04T11:51:07;19.60;;;16.10;;
60665;SDS011;59128;44.642;21.188;2023-12-04T11:53:37;23.15;;;18.92;;
60665;SDS011;59128;44.642;21.188;2023-12-04T11:56:08;26.90;;;21.15;;
60665;SDS011;59128;44.642;21.188;2023-12-04T11:58:41;25.83;;;19.08;;
60665;SDS011;59128;44.642;21.188;2023-12-04T12:01:07;23.38;;;17.92;;
60665;SDS011;59128;44.642;21.188;2023-12-04T12:03:33;32.92;;;23.45;;
60665;SDS011;59128;44.642;21.188;2023-12-04T12:05:59;25.55;;;19.38;;
60665;SDS011;59128;44.642;21.188;2023-12-04T12:08:25;21.92;;;17.83;;
60665;SDS011;59128;44.642;21.188;2023-12-04T12:10:54;27.63;;;21.55;;
60665;SDS011;59128;44.642;21.188;2023-12-04T12:13:20;21.15;;;17.40;;
60665;SDS011;59128;44.642;21.188;2023-12-04T12:15:47;16.75;;;14.48;;
60665;SDS011;59128;44.642;21.188;2023-12-04T12:18:15;19.08;;;15.32;;
60665;SDS011;59128;44.642;21.188;2023-12-04T12:20:41;17.55;;;14.15;;
60665;SDS011;59128;44.642;21.188;2023-12-04T12:23:07;16.80;;;14.43;;
60665;SDS011;59128;44.642;21.188;2023-12-04T12:25:37;15.75;;;13.32;;
60665;SDS011;59128;44.642;21.188;2023-12-04T12:28:04;14.88;;;12.35;;
60665;SDS011;59128;44.642;21.188;2023-12-04T12:30:30;16.08;;;13.05;;
60665;SDS011;59128;44.642;21.188;2023-12-04T12:32:56;21.52;;;16.67;;
60665;SDS011;59128;44.642;21.188;2023-12-04T12:35:22;31.45;;;21.00;;
60665;SDS011;59128;44.642;21.188;2023-12-04T12:37:50;15.43;;;12.77;;
60665;SDS011;59128;44.642;21.188;2023-12-04T12:40:20;16.10;;;13.13;;
60665;SDS011;59128;44.642;21.188;2023-12-04T12:42:46;18.80;;;15.02;;
60665;SDS011;59128;44.642;21.188;2023-12-04T12:45:13;18.00;;;13.82;;
60665;SDS011;59128;44.642;21.188;2023-12-04T12:47:42;27.85;;;19.15;;
60665;SDS011;59128;44.642;21.188;2023-12-04T12:50:09;22.90;;;16.58;;
60665;SDS011;59128;44.642;21.188;2023-12-04T12:52:36;14.68;;;12.88;;
60665;SDS011;59128;44.642;21.188;2023-12-04T12:55:03;14.63;;;12.50;;
60665;SDS011;59128;44.642;21.188;2023-12-04T12:57:30;22.42;;;16.42;;
60665;SDS011;59128;44.642;21.188;2023-12-04T12:59:56;34.78;;;20.70;;
60665;SDS011;59128;44.642;21.188;2023-12-04T13:02:22;16.05;;;13.10;;
60665;SDS011;59128;44.642;21.188;2023-12-04T13:04:48;22.67;;;15.75;;
60665;SDS011;59128;44.642;21.188;2023-12-04T13:07:14;16.92;;;12.88;;
60665;SDS011;59128;44.642;21.188;2023-12-04T13:09:40;14.10;;;11.57;;
60665;SDS011;59128;44.642;21.188;2023-12-04T13:12:07;19.98;;;15.98;;
60665;SDS011;59128;44.642;21.188;2023-12-04T13:14:34;17.50;;;14.80;;
60665;SDS011;59128;44.642;21.188;2023-12-04T13:17:03;31.70;;;23.02;;
60665;SDS011;59128;44.642;21.188;2023-12-04T13:19:29;52.50;;;35.87;;
60665;SDS011;59128;44.642;21.188;2023-12-04T13:21:59;25.05;;;17.80;;
60665;SDS011;59128;44.642;21.188;2023-12-04T13:24:26;32.03;;;22.15;;
60665;SDS011;59128;44.642;21.188;2023-12-04T13:26:52;11.52;;;10.23;;
60665;SDS011;59128;44.642;21.188;2023-12-04T13:29:18;27.10;;;19.48;;
60665;SDS011;59128;44.642;21.188;2023-12-04T13:31:45;15.50;;;12.80;;
60665;SDS011;59128;44.642;21.188;2023-12-04T13:34:14;17.90;;;14.77;;
60665;SDS011;59128;44.642;21.188;2023-12-04T13:36:40;19.65;;;15.85;;
60665;SDS011;59128;44.642;21.188;2023-12-04T13:39:06;41.05;;;25.52;;
60665;SDS011;59128;44.642;21.188;2023-12-04T13:41:42;50.75;;;33.38;;
60665;SDS011;59128;44.642;21.188;2023-12-04T13:44:27;14.48;;;12.52;;
60665;SDS011;59128;44.642;21.188;2023-12-04T13:46:53;14.55;;;13.02;;
60665;SDS011;59128;44.642;21.188;2023-12-04T13:49:19;29.40;;;21.63;;
60665;SDS011;59128;44.642;21.188;2023-12-04T13:51:45;159.02;;;94.38;;
60665;SDS011;59128;44.642;21.188;2023-12-04T13:54:14;42.08;;;28.73;;
60665;SDS011;59128;44.642;21.188;2023-12-04T13:56:49;22.90;;;18.30;;
60665;SDS011;59128;44.642;21.188;2023-12-04T13:59:22;21.73;;;18.70;;
60665;SDS011;59128;44.642;21.188;2023-12-04T14:01:49;19.83;;;17.02;;
60665;SDS011;59128;44.642;21.188;2023-12-04T14:04:16;26.65;;;23.73;;
60665;SDS011;59128;44.642;21.188;2023-12-04T14:06:42;15.63;;;13.33;;
60665;SDS011;59128;44.642;21.188;2023-12-04T14:09:08;22.42;;;18.35;;
60665;SDS011;59128;44.642;21.188;2023-12-04T14:11:42;15.05;;;13.02;;